sensor_id;sensor_type;location;lat;lon;timestamp;P1;durP1;ratioP1;P2;durP2;ratioP2
53253;SDS011;39148;53.332;6.922;2022-09-01T00:03:49;1.25;;;0.40;;
53253;SDS011;39148;53.332;6.922;2022-09-01T00:06:20;1.10;;;0.35;;
53253;SDS011;39148;53.332;6.922;2022-09-01T00:08:49;1.95;;;0.90;;
53253;SDS011;39148;53.332;6.922;2022-09-01T00:11:15;0.80;;;0.30;;
53253;SDS011;39148;53.332;6.922;2022-09-01T00:13:41;1.83;;;0.45;;
53253;SDS011;39148;53.332;6.922;2022-09-01T00:16:07;0.95;;;0.32;;
53253;SDS011;39148;53.332;6.922;2022-09-01T00:18:35;1.67;;;0.40;;
53253;SDS011;39148;53.332;6.922;2022-09-01T00:21:01;1.20;;;0.40;;
53253;SDS011;39148;53.332;6.922;2022-09-01T00:23:27;0.73;;;0.30;;
53253;SDS011;39148;53.332;6.922;2022-09-01T00:25:54;0.80;;;0.30;;
53253;SDS011;39148;53.332;6.922;2022-09-01T00:28:19;0.70;;;0.20;;
53253;SDS011;39148;53.332;6.922;2022-09-01T00:30:45;1.55;;;0.40;;
53253;SDS011;39148;53.332;6.922;2022-09-01T00:33:11;1.00;;;0.40;;
53253;SDS011;39148;53.332;6.922;2022-09-01T00:35:37;0.95;;;0.30;;
53253;SDS011;39148;53.332;6.922;2022-09-01T00:38:02;0.40;;;0.20;;
53253;SDS011;39148;53.332;6.922;2022-09-01T00:40:28;1.25;;;0.30;;
53253;SDS011;39148;53.332;6.922;2022-09-01T00:42:54;0.85;;;0.30;;
53253;SDS011;39148;53.332;6.922;2022-09-01T00:45:20;0.95;;;0.30;;
53253;SDS011;39148;53.332;6.922;2022-09-01T00:47:46;1.02;;;0.20;;
53253;SDS011;39148;53.332;6.922;2022-09-01T00:50:14;0.40;;;0.20;;
53253;SDS011;39148;53.332;6.922;2022-09-01T00:52:50;0.90;;;0.30;;
53253;SDS011;39148;53.332;6.922;2022-09-01T00:55:26;1.20;;;0.30;;
53253;SDS011;39148;53.332;6.922;2022-09-01T00:57:55;0.50;;;0.20;;
53253;SDS011;39148;53.332;6.922;2022-09-01T01:00:23;0.95;;;0.28;;
53253;SDS011;39148;53.332;6.922;2022-09-01T01:02:52;0.98;;;0.32;;
53253;SDS011;39148;53.332;6.922;2022-09-01T01:06:04;0.75;;;0.40;;
53253;SDS011;39148;53.332;6.922;2022-09-01T01:08:15;2.42;;;0.40;;
53253;SDS011;39148;53.332;6.922;2022-09-01T01:10:45;0.68;;;0.22;;
53253;SDS011;39148;53.332;6.922;2022-09-01T01:13:13;1.02;;;0.40;;
53253;SDS011;39148;53.332;6.922;2022-09-01T01:15:41;1.08;;;0.40;;
53253;SDS011;39148;53.332;6.922;2022-09-01T01:18:14;1.25;;;0.30;;
53253;SDS011;39148;53.332;6.922;2022-09-01T01:20:40;0.80;;;0.32;;
53253;SDS011;39148;53.332;6.922;2022-09-01T01:26:04;1.52;;;0.40;;
53253;SDS011;39148;53.332;6.922;2022-09-01T01:28:34;1.30;;;0.20;;
53253;SDS011;39148;53.332;6.922;2022-09-01T01:33:38;0.90;;;0.32;;
53253;SDS011;39148;53.332;6.922;2022-09-01T01:36:16;0.52;;;0.20;;
53253;SDS011;39148;53.332;6.922;2022-09-01T01:38:46;0.45;;;0.20;;
53253;SDS011;39148;53.332;6.922;2022-09-01T01:41:13;0.77;;;0.40;;
53253;SDS011;39148;53.332;6.922;2022-09-01T01:43:42;0.35;;;0.20;;
53253;SDS011;39148;53.332;6.922;2022-09-01T01:46:08;0.52;;;0.20;;
53253;SDS011;39148;53.332;6.922;2022-09-01T01:48:36;0.90;;;0.30;;
53253;SDS011;39148;53.332;6.922;2022-09-01T01:51:05;0.57;;;0.20;;
53253;SDS011;39148;53.332;6.922;2022-09-01T01:53:32;0.98;;;0.28;;
53253;SDS011;39148;53.332;6.922;2022-09-01T01:55:58;1.10;;;0.30;;
53253;SDS011;39148;53.332;6.922;2022-09-01T01:58:25;1.20;;;0.40;;
53253;SDS011;39148;53.332;6.922;2022-09-01T02:00:54;0.85;;;0.40;;
53253;SDS011;39148;53.332;6.922;2022-09-01T02:03:22;1.40;;;0.30;;
53253;SDS011;39148;53.332;6.922;2022-09-01T02:05:51;0.82;;;0.22;;
53253;SDS011;39148;53.332;6.922;2022-09-01T02:08:19;1.00;;;0.20;;
53253;SDS011;39148;53.332;6.922;2022-09-01T02:10:48;0.93;;;0.30;;
53253;SDS011;39148;53.332;6.922;2022-09-01T02:13:15;0.55;;;0.25;;
53253;SDS011;39148;53.332;6.922;2022-09-01T02:15:48;0.95;;;0.30;;
53253;SDS011;39148;53.332;6.922;2022-09-01T02:18:29;1.58;;;0.40;;
53253;SDS011;39148;53.332;6.922;2022-09-01T02:20:59;0.75;;;0.20;;
53253;SDS011;39148;53.332;6.922;2022-09-01T02:23:26;0.95;;;0.32;;
53253;SDS011;39148;53.332;6.922;2022-09-01T02:25:55;0.40;;;0.20;;
53253;SDS011;39148;53.332;6.922;2022-09-01T02:30:52;1.13;;;0.30;;
53253;SDS011;39148;53.332;6.922;2022-09-01T02:33:20;0.82;;;0.30;;
53253;SDS011;39148;53.332;6.922;2022-09-01T02:35:50;1.02;;;0.40;;
53253;SDS011;39148;53.332;6.922;2022-09-01T02:38:18;1.67;;;0.40;;
53253;SDS011;39148;53.332;6.922;2022-09-01T02:40:45;0.90;;;0.40;;
53253;SDS011;39148;53.332;6.922;2022-09-01T02:43:12;1.08;;;0.40;;
53253;SDS011;39148;53.332;6.922;2022-09-01T02:45:44;0.60;;;0.30;;
53253;SDS011;39148;53.332;6.922;2022-09-01T02:48:11;0.85;;;0.28;;
53253;SDS011;39148;53.332;6.922;2022-09-01T02:50:38;1.95;;;0.50;;
53253;SDS011;39148;53.332;6.922;2022-09-01T02:53:06;0.60;;;0.20;;
53253;SDS011;39148;53.332;6.922;2022-09-01T02:55:40;0.82;;;0.30;;
53253;SDS011;39148;53.332;6.922;2022-09-01T02:58:06;1.00;;;0.30;;
53253;SDS011;39148;53.332;6.922;2022-09-01T03:00:36;0.93;;;0.30;;
53253;SDS011;39148;53.332;6.922;2022-09-01T03:03:04;0.98;;;0.38;;
53253;SDS011;39148;53.332;6.922;2022-09-01T03:05:31;0.85;;;0.20;;
53253;SDS011;39148;53.332;6.922;2022-09-01T03:08:02;1.13;;;0.52;;
53253;SDS011;39148;53.332;6.922;2022-09-01T03:10:35;1.08;;;0.30;;
53253;SDS011;39148;53.332;6.922;2022-09-01T03:15:39;0.85;;;0.30;;
53253;SDS011;39148;53.332;6.922;2022-09-01T03:18:07;0.50;;;0.30;;
53253;SDS011;39148;53.332;6.922;2022-09-01T03:20:35;1.00;;;0.28;;
53253;SDS011;39148;53.332;6.922;2022-09-01T03:23:05;1.35;;;0.30;;
53253;SDS011;39148;53.332;6.922;2022-09-01T03:27:58;1.70;;;0.32;;
53253;SDS011;39148;53.332;6.922;2022-09-01T03:30:26;0.70;;;0.28;;
53253;SDS011;39148;53.332;6.922;2022-09-01T03:32:54;1.05;;;0.30;;
53253;SDS011;39148;53.332;6.922;2022-09-01T03:35:24;1.95;;;0.30;;
53253;SDS011;39148;53.332;6.922;2022-09-01T03:37:51;1.38;;;0.20;;
53253;SDS011;39148;53.332;6.922;2022-09-01T03:40:17;1.23;;;0.30;;
53253;SDS011;39148;53.332;6.922;2022-09-01T03:42:43;0.70;;;0.30;;
53253;SDS011;39148;53.332;6.922;2022-09-01T03:45:10;0.70;;;0.30;;
53253;SDS011;39148;53.332;6.922;2022-09-01T03:47:40;1.33;;;0.40;;
53253;SDS011;39148;53.332;6.922;2022-09-01T03:50:08;0.63;;;0.30;;
53253;SDS011;39148;53.332;6.922;2022-09-01T03:52:52;1.27;;;0.30;;
53253;SDS011;39148;53.332;6.922;2022-09-01T03:55:22;0.70;;;0.30;;
53253;SDS011;39148;53.332;6.922;2022-09-01T03:57:55;2.20;;;0.90;;
53253;SDS011;39148;53.332;6.922;2022-09-01T04:00:23;0.47;;;0.20;;
53253;SDS011;39148;53.332;6.922;2022-09-01T04:02:54;1.10;;;0.30;;
53253;SDS011;39148;53.332;6.922;2022-09-01T04:05:26;0.60;;;0.20;;
53253;SDS011;39148;53.332;6.922;2022-09-01T04:07:57;1.52;;;0.43;;
53253;SDS011;39148;53.332;6.922;2022-09-01T04:10:28;3.50;;;0.45;;
53253;SDS011;39148;53.332;6.922;2022-09-01T04:12:56;0.65;;;0.30;;
53253;SDS011;39148;53.332;6.922;2022-09-01T04:15:23;1.10;;;0.40;;
53253;SDS011;39148;53.332;6.922;2022-09-01T04:17:50;1.85;;;0.35;;
53253;SDS011;39148;53.332;6.922;2022-09-01T04:20:36;0.70;;;0.28;;
53253;SDS011;39148;53.332;6.922;2022-09-01T04:23:34;2.25;;;0.45;;
53253;SDS011;39148;53.332;6.922;2022-09-01T04:26:00;1.10;;;0.30;;
53253;SDS011;39148;53.332;6.922;2022-09-01T04:28:34;0.68;;;0.20;;
53253;SDS011;39148;53.332;6.922;2022-09-01T04:31:05;0.98;;;0.40;;
53253;SDS011;39148;53.332;6.922;2022-09-01T04:33:34;1.13;;;0.40;;
53253;SDS011;39148;53.332;6.922;2022-09-01T04:36:25;0.67;;;0.23;;
53253;SDS011;39148;53.332;6.922;2022-09-01T04:38:55;0.63;;;0.20;;
53253;SDS011;39148;53.332;6.922;2022-09-01T04:41:23;1.40;;;0.35;;
53253;SDS011;39148;53.332;6.922;2022-09-01T04:43:51;1.83;;;0.40;;
53253;SDS011;39148;53.332;6.922;2022-09-01T04:46:21;1.02;;;0.30;;
53253;SDS011;39148;53.332;6.922;2022-09-01T04:48:53;0.98;;;0.30;;
53253;SDS011;39148;53.332;6.922;2022-09-01T04:51:21;0.88;;;0.30;;
53253;SDS011;39148;53.332;6.922;2022-09-01T04:53:55;0.68;;;0.35;;
53253;SDS011;39148;53.332;6.922;2022-09-01T04:56:22;1.90;;;0.32;;
53253;SDS011;39148;53.332;6.922;2022-09-01T04:58:49;1.75;;;0.38;;
53253;SDS011;39148;53.332;6.922;2022-09-01T05:01:19;0.68;;;0.30;;
53253;SDS011;39148;53.332;6.922;2022-09-01T05:03:48;0.57;;;0.20;;
53253;SDS011;39148;53.332;6.922;2022-09-01T05:06:20;1.25;;;0.40;;
53253;SDS011;39148;53.332;6.922;2022-09-01T05:08:47;0.93;;;0.40;;
53253;SDS011;39148;53.332;6.922;2022-09-01T05:11:14;1.73;;;0.68;;
53253;SDS011;39148;53.332;6.922;2022-09-01T05:13:43;1.65;;;0.30;;
53253;SDS011;39148;53.332;6.922;2022-09-01T05:16:12;0.65;;;0.30;;
53253;SDS011;39148;53.332;6.922;2022-09-01T05:18:40;2.20;;;0.40;;
53253;SDS011;39148;53.332;6.922;2022-09-01T05:21:12;0.68;;;0.30;;
53253;SDS011;39148;53.332;6.922;2022-09-01T05:23:41;1.55;;;0.30;;
53253;SDS011;39148;53.332;6.922;2022-09-01T05:26:16;0.80;;;0.30;;
53253;SDS011;39148;53.332;6.922;2022-09-01T05:28:45;1.00;;;0.30;;
53253;SDS011;39148;53.332;6.922;2022-09-01T05:31:12;0.80;;;0.40;;
53253;SDS011;39148;53.332;6.922;2022-09-01T05:33:39;2.30;;;0.47;;
53253;SDS011;39148;53.332;6.922;2022-09-01T05:36:11;1.38;;;0.40;;
53253;SDS011;39148;53.332;6.922;2022-09-01T05:38:37;1.10;;;0.40;;
53253;SDS011;39148;53.332;6.922;2022-09-01T05:41:06;0.95;;;0.38;;
53253;SDS011;39148;53.332;6.922;2022-09-01T05:43:35;1.10;;;0.50;;
53253;SDS011;39148;53.332;6.922;2022-09-01T05:46:05;1.52;;;0.40;;
53253;SDS011;39148;53.332;6.922;2022-09-01T05:48:32;1.42;;;0.40;;
53253;SDS011;39148;53.332;6.922;2022-09-01T05:51:08;1.83;;;0.30;;
53253;SDS011;39148;53.332;6.922;2022-09-01T05:53:36;2.10;;;0.40;;
53253;SDS011;39148;53.332;6.922;2022-09-01T05:56:05;0.70;;;0.30;;
53253;SDS011;39148;53.332;6.922;2022-09-01T05:58:32;2.55;;;0.50;;
53253;SDS011;39148;53.332;6.922;2022-09-01T06:00:59;0.50;;;0.20;;
53253;SDS011;39148;53.332;6.922;2022-09-01T06:03:26;2.75;;;0.38;;
53253;SDS011;39148;53.332;6.922;2022-09-01T06:05:53;4.80;;;0.60;;
53253;SDS011;39148;53.332;6.922;2022-09-01T06:08:21;1.52;;;0.40;;
53253;SDS011;39148;53.332;6.922;2022-09-01T06:10:49;1.77;;;0.45;;
53253;SDS011;39148;53.332;6.922;2022-09-01T06:13:17;2.00;;;0.40;;
53253;SDS011;39148;53.332;6.922;2022-09-01T06:15:48;0.88;;;0.35;;
53253;SDS011;39148;53.332;6.922;2022-09-01T06:18:17;1.63;;;0.40;;
53253;SDS011;39148;53.332;6.922;2022-09-01T06:20:46;0.88;;;0.35;;
53253;SDS011;39148;53.332;6.922;2022-09-01T06:23:13;1.75;;;0.60;;
53253;SDS011;39148;53.332;6.922;2022-09-01T06:25:42;1.75;;;0.43;;
53253;SDS011;39148;53.332;6.922;2022-09-01T06:28:14;1.23;;;0.50;;
53253;SDS011;39148;53.332;6.922;2022-09-01T06:30:42;0.90;;;0.30;;
53253;SDS011;39148;53.332;6.922;2022-09-01T06:33:12;1.88;;;0.40;;
53253;SDS011;39148;53.332;6.922;2022-09-01T06:35:38;2.05;;;0.60;;
53253;SDS011;39148;53.332;6.922;2022-09-01T06:38:06;3.60;;;0.70;;
53253;SDS011;39148;53.332;6.922;2022-09-01T06:40:33;1.10;;;0.47;;
53253;SDS011;39148;53.332;6.922;2022-09-01T06:43:00;2.85;;;0.50;;
53253;SDS011;39148;53.332;6.922;2022-09-01T06:45:32;2.00;;;0.50;;
53253;SDS011;39148;53.332;6.922;2022-09-01T06:47:59;0.73;;;0.45;;
53253;SDS011;39148;53.332;6.922;2022-09-01T06:50:25;1.77;;;0.40;;
53253;SDS011;39148;53.332;6.922;2022-09-01T06:52:52;3.70;;;1.10;;
53253;SDS011;39148;53.332;6.922;2022-09-01T06:55:33;1.33;;;0.30;;
53253;SDS011;39148;53.332;6.922;2022-09-01T06:58:02;0.90;;;0.40;;
53253;SDS011;39148;53.332;6.922;2022-09-01T07:00:29;3.45;;;0.57;;
53253;SDS011;39148;53.332;6.922;2022-09-01T07:02:55;1.40;;;0.50;;
53253;SDS011;39148;53.332;6.922;2022-09-01T07:05:22;0.95;;;0.30;;
53253;SDS011;39148;53.332;6.922;2022-09-01T07:07:50;1.55;;;0.50;;
53253;SDS011;39148;53.332;6.922;2022-09-01T07:10:22;2.50;;;0.43;;
53253;SDS011;39148;53.332;6.922;2022-09-01T07:12:51;1.65;;;0.50;;
53253;SDS011;39148;53.332;6.922;2022-09-01T07:15:19;2.58;;;0.50;;
53253;SDS011;39148;53.332;6.922;2022-09-01T07:17:49;1.85;;;0.40;;
53253;SDS011;39148;53.332;6.922;2022-09-01T07:20:21;1.83;;;0.43;;
53253;SDS011;39148;53.332;6.922;2022-09-01T07:22:50;2.63;;;0.60;;
53253;SDS011;39148;53.332;6.922;2022-09-01T07:25:17;1.23;;;0.40;;
53253;SDS011;39148;53.332;6.922;2022-09-01T07:27:44;1.42;;;0.40;;
53253;SDS011;39148;53.332;6.922;2022-09-01T07:30:14;1.43;;;0.57;;
53253;SDS011;39148;53.332;6.922;2022-09-01T07:32:44;1.60;;;0.50;;
53253;SDS011;39148;53.332;6.922;2022-09-01T07:35:15;1.27;;;0.30;;
53253;SDS011;39148;53.332;6.922;2022-09-01T07:37:44;0.70;;;0.40;;
53253;SDS011;39148;53.332;6.922;2022-09-01T07:40:13;2.55;;;0.80;;
53253;SDS011;39148;53.332;6.922;2022-09-01T07:42:44;0.70;;;0.35;;
53253;SDS011;39148;53.332;6.922;2022-09-01T07:45:12;3.75;;;0.55;;
53253;SDS011;39148;53.332;6.922;2022-09-01T07:47:41;1.15;;;0.40;;
53253;SDS011;39148;53.332;6.922;2022-09-01T07:50:09;2.92;;;0.52;;
53253;SDS011;39148;53.332;6.922;2022-09-01T07:52:37;1.67;;;0.50;;
53253;SDS011;39148;53.332;6.922;2022-09-01T07:55:10;2.47;;;0.90;;
53253;SDS011;39148;53.332;6.922;2022-09-01T07:57:38;1.63;;;0.50;;
53253;SDS011;39148;53.332;6.922;2022-09-01T08:00:14;1.80;;;0.50;;
53253;SDS011;39148;53.332;6.922;2022-09-01T08:02:40;4.35;;;0.73;;
53253;SDS011;39148;53.332;6.922;2022-09-01T08:05:11;2.25;;;0.60;;
53253;SDS011;39148;53.332;6.922;2022-09-01T08:07:42;2.40;;;0.70;;
53253;SDS011;39148;53.332;6.922;2022-09-01T08:10:11;2.25;;;0.77;;
53253;SDS011;39148;53.332;6.922;2022-09-01T08:12:37;3.40;;;1.08;;
53253;SDS011;39148;53.332;6.922;2022-09-01T08:15:03;2.90;;;0.98;;
53253;SDS011;39148;53.332;6.922;2022-09-01T08:17:31;3.15;;;0.95;;
53253;SDS011;39148;53.332;6.922;2022-09-01T08:19:57;3.53;;;1.10;;
53253;SDS011;39148;53.332;6.922;2022-09-01T08:22:23;4.18;;;1.10;;
53253;SDS011;39148;53.332;6.922;2022-09-01T08:24:52;6.03;;;1.40;;
53253;SDS011;39148;53.332;6.922;2022-09-01T08:27:18;3.70;;;0.80;;
53253;SDS011;39148;53.332;6.922;2022-09-01T08:29:44;2.67;;;0.90;;
53253;SDS011;39148;53.332;6.922;2022-09-01T08:32:10;3.63;;;0.90;;
53253;SDS011;39148;53.332;6.922;2022-09-01T08:34:36;3.70;;;0.98;;
53253;SDS011;39148;53.332;6.922;2022-09-01T08:37:03;3.78;;;1.00;;
53253;SDS011;39148;53.332;6.922;2022-09-01T08:39:29;5.15;;;2.00;;
53253;SDS011;39148;53.332;6.922;2022-09-01T08:47:18;5.53;;;1.13;;
53253;SDS011;39148;53.332;6.922;2022-09-01T08:49:44;5.35;;;2.22;;
53253;SDS011;39148;53.332;6.922;2022-09-01T08:52:32;6.63;;;2.22;;
53253;SDS011;39148;53.332;6.922;2022-09-01T08:55:23;5.63;;;2.38;;
53253;SDS011;39148;53.332;6.922;2022-09-01T08:57:55;5.18;;;1.70;;
53253;SDS011;39148;53.332;6.922;2022-09-01T09:00:28;3.97;;;1.55;;
53253;SDS011;39148;53.332;6.922;2022-09-01T09:11:04;6.30;;;2.25;;
53253;SDS011;39148;53.332;6.922;2022-09-01T09:16:30;4.85;;;2.05;;
53253;SDS011;39148;53.332;6.922;2022-09-01T09:19:04;5.15;;;1.63;;
53253;SDS011;39148;53.332;6.922;2022-09-01T09:21:42;3.70;;;1.58;;
53253;SDS011;39148;53.332;6.922;2022-09-01T09:29:49;4.40;;;1.80;;
53253;SDS011;39148;53.332;6.922;2022-09-01T09:32:20;4.90;;;1.98;;
53253;SDS011;39148;53.332;6.922;2022-09-01T09:34:48;5.20;;;2.22;;
53253;SDS011;39148;53.332;6.922;2022-09-01T09:37:35;5.50;;;2.10;;
53253;SDS011;39148;53.332;6.922;2022-09-01T09:40:02;4.75;;;1.83;;
53253;SDS011;39148;53.332;6.922;2022-09-01T09:42:28;4.57;;;1.83;;
53253;SDS011;39148;53.332;6.922;2022-09-01T09:44:54;6.22;;;1.77;;
53253;SDS011;39148;53.332;6.922;2022-09-01T09:47:33;3.72;;;1.63;;
53253;SDS011;39148;53.332;6.922;2022-09-01T09:52:43;5.30;;;1.88;;
53253;SDS011;39148;53.332;6.922;2022-09-01T09:55:27;9.85;;;4.22;;
53253;SDS011;39148;53.332;6.922;2022-09-01T09:57:57;17.42;;;8.20;;
53253;SDS011;39148;53.332;6.922;2022-09-01T10:00:29;20.98;;;10.05;;
53253;SDS011;39148;53.332;6.922;2022-09-01T10:02:59;19.40;;;9.63;;
53253;SDS011;39148;53.332;6.922;2022-09-01T10:08:01;25.95;;;12.10;;
53253;SDS011;39148;53.332;6.922;2022-09-01T10:10:30;26.35;;;13.90;;
53253;SDS011;39148;53.332;6.922;2022-09-01T10:13:16;23.05;;;12.27;;
53253;SDS011;39148;53.332;6.922;2022-09-01T10:15:54;24.55;;;12.18;;
53253;SDS011;39148;53.332;6.922;2022-09-01T10:18:22;24.27;;;12.45;;
53253;SDS011;39148;53.332;6.922;2022-09-01T10:21:03;22.58;;;11.65;;
53253;SDS011;39148;53.332;6.922;2022-09-01T10:23:32;23.60;;;12.68;;
53253;SDS011;39148;53.332;6.922;2022-09-01T10:26:03;25.55;;;11.52;;
53253;SDS011;39148;53.332;6.922;2022-09-01T10:28:43;24.45;;;12.40;;
53253;SDS011;39148;53.332;6.922;2022-09-01T10:31:31;24.70;;;11.63;;
53253;SDS011;39148;53.332;6.922;2022-09-01T10:33:58;19.88;;;11.00;;
53253;SDS011;39148;53.332;6.922;2022-09-01T10:36:27;19.95;;;10.35;;
53253;SDS011;39148;53.332;6.922;2022-09-01T10:38:54;21.30;;;10.35;;
53253;SDS011;39148;53.332;6.922;2022-09-01T10:44:31;18.23;;;9.10;;
53253;SDS011;39148;53.332;6.922;2022-09-01T10:47:09;17.95;;;8.57;;
53253;SDS011;39148;53.332;6.922;2022-09-01T10:52:51;19.15;;;8.30;;
53253;SDS011;39148;53.332;6.922;2022-09-01T10:55:18;14.23;;;7.30;;
53253;SDS011;39148;53.332;6.922;2022-09-01T11:01:02;11.02;;;5.82;;
53253;SDS011;39148;53.332;6.922;2022-09-01T11:03:32;11.90;;;5.80;;
53253;SDS011;39148;53.332;6.922;2022-09-01T11:13:45;10.25;;;4.32;;
53253;SDS011;39148;53.332;6.922;2022-09-01T11:27:09;8.55;;;3.70;;
53253;SDS011;39148;53.332;6.922;2022-09-01T11:29:53;9.55;;;3.72;;
53253;SDS011;39148;53.332;6.922;2022-09-01T11:32:33;9.35;;;3.70;;
53253;SDS011;39148;53.332;6.922;2022-09-01T11:35:04;7.53;;;3.38;;
53253;SDS011;39148;53.332;6.922;2022-09-01T11:37:41;5.68;;;2.85;;
53253;SDS011;39148;53.332;6.922;2022-09-01T11:40:07;8.68;;;3.33;;
53253;SDS011;39148;53.332;6.922;2022-09-01T11:42:41;6.88;;;2.63;;
53253;SDS011;39148;53.332;6.922;2022-09-01T11:47:40;5.63;;;2.03;;
53253;SDS011;39148;53.332;6.922;2022-09-01T11:50:17;6.88;;;2.45;;
53253;SDS011;39148;53.332;6.922;2022-09-01T11:52:55;7.68;;;2.30;;
53253;SDS011;39148;53.332;6.922;2022-09-01T11:55:31;5.50;;;2.15;;
53253;SDS011;39148;53.332;6.922;2022-09-01T11:58:00;6.28;;;2.22;;
53253;SDS011;39148;53.332;6.922;2022-09-01T12:00:28;5.55;;;2.20;;
53253;SDS011;39148;53.332;6.922;2022-09-01T12:02:55;6.50;;;2.03;;
53253;SDS011;39148;53.332;6.922;2022-09-01T12:05:34;4.22;;;1.70;;
53253;SDS011;39148;53.332;6.922;2022-09-01T12:08:13;5.43;;;2.25;;
53253;SDS011;39148;53.332;6.922;2022-09-01T12:10:44;5.32;;;2.20;;
53253;SDS011;39148;53.332;6.922;2022-09-01T12:13:18;4.40;;;1.73;;
53253;SDS011;39148;53.332;6.922;2022-09-01T12:15:53;5.22;;;1.90;;
53253;SDS011;39148;53.332;6.922;2022-09-01T12:18:22;4.28;;;1.80;;
53253;SDS011;39148;53.332;6.922;2022-09-01T12:20:56;5.22;;;1.77;;
53253;SDS011;39148;53.332;6.922;2022-09-01T12:25:53;3.13;;;1.30;;
53253;SDS011;39148;53.332;6.922;2022-09-01T12:28:26;3.65;;;1.40;;
53253;SDS011;39148;53.332;6.922;2022-09-01T12:31:00;4.13;;;1.40;;
53253;SDS011;39148;53.332;6.922;2022-09-01T12:33:29;3.83;;;1.30;;
53253;SDS011;39148;53.332;6.922;2022-09-01T12:38:51;2.38;;;1.02;;
53253;SDS011;39148;53.332;6.922;2022-09-01T12:41:23;2.25;;;1.08;;
53253;SDS011;39148;53.332;6.922;2022-09-01T12:46:51;2.67;;;0.98;;
53253;SDS011;39148;53.332;6.922;2022-09-01T12:49:18;2.55;;;0.85;;
53253;SDS011;39148;53.332;6.922;2022-09-01T12:51:49;2.63;;;0.77;;
53253;SDS011;39148;53.332;6.922;2022-09-01T12:54:30;4.03;;;1.05;;
53253;SDS011;39148;53.332;6.922;2022-09-01T12:56:56;4.43;;;0.80;;
53253;SDS011;39148;53.332;6.922;2022-09-01T12:59:23;3.22;;;1.00;;
53253;SDS011;39148;53.332;6.922;2022-09-01T13:01:50;2.58;;;0.82;;
53253;SDS011;39148;53.332;6.922;2022-09-01T13:06:45;2.88;;;0.90;;
53253;SDS011;39148;53.332;6.922;2022-09-01T13:09:11;2.78;;;0.93;;
53253;SDS011;39148;53.332;6.922;2022-09-01T13:11:37;2.00;;;0.80;;
53253;SDS011;39148;53.332;6.922;2022-09-01T13:14:03;2.22;;;0.80;;
53253;SDS011;39148;53.332;6.922;2022-09-01T13:16:29;3.65;;;1.10;;
53253;SDS011;39148;53.332;6.922;2022-09-01T13:18:55;2.17;;;0.82;;
53253;SDS011;39148;53.332;6.922;2022-09-01T13:21:20;2.63;;;0.85;;
53253;SDS011;39148;53.332;6.922;2022-09-01T13:23:47;2.97;;;0.80;;
53253;SDS011;39148;53.332;6.922;2022-09-01T13:26:14;17.95;;;8.77;;
53253;SDS011;39148;53.332;6.922;2022-09-01T13:28:40;19.05;;;10.10;;
53253;SDS011;39148;53.332;6.922;2022-09-01T13:31:05;29.73;;;16.67;;
53253;SDS011;39148;53.332;6.922;2022-09-01T13:33:32;43.05;;;26.08;;
53253;SDS011;39148;53.332;6.922;2022-09-01T13:35:59;40.13;;;23.30;;
53253;SDS011;39148;53.332;6.922;2022-09-01T13:38:26;38.33;;;23.55;;
53253;SDS011;39148;53.332;6.922;2022-09-01T13:40:52;47.85;;;27.20;;
53253;SDS011;39148;53.332;6.922;2022-09-01T13:43:18;49.28;;;31.35;;
53253;SDS011;39148;53.332;6.922;2022-09-01T13:45:46;54.53;;;32.60;;
53253;SDS011;39148;53.332;6.922;2022-09-01T13:48:13;60.33;;;36.95;;
53253;SDS011;39148;53.332;6.922;2022-09-01T13:50:39;61.20;;;38.10;;
53253;SDS011;39148;53.332;6.922;2022-09-01T13:53:05;63.40;;;36.92;;
53253;SDS011;39148;53.332;6.922;2022-09-01T13:55:33;61.53;;;37.83;;
53253;SDS011;39148;53.332;6.922;2022-09-01T13:58:02;57.22;;;36.25;;
53253;SDS011;39148;53.332;6.922;2022-09-01T14:00:29;63.00;;;37.05;;
53253;SDS011;39148;53.332;6.922;2022-09-01T14:03:01;61.63;;;37.67;;
53253;SDS011;39148;53.332;6.922;2022-09-01T14:05:33;61.30;;;38.83;;
53253;SDS011;39148;53.332;6.922;2022-09-01T14:08:01;60.75;;;37.35;;
53253;SDS011;39148;53.332;6.922;2022-09-01T14:10:28;58.50;;;35.83;;
53253;SDS011;39148;53.332;6.922;2022-09-01T14:12:56;55.60;;;34.85;;
53253;SDS011;39148;53.332;6.922;2022-09-01T14:15:22;54.50;;;35.85;;
53253;SDS011;39148;53.332;6.922;2022-09-01T14:17:50;53.67;;;34.22;;
53253;SDS011;39148;53.332;6.922;2022-09-01T14:20:22;53.05;;;33.30;;
53253;SDS011;39148;53.332;6.922;2022-09-01T14:22:51;54.40;;;33.42;;
53253;SDS011;39148;53.332;6.922;2022-09-01T14:25:18;55.75;;;33.92;;
53253;SDS011;39148;53.332;6.922;2022-09-01T14:27:45;52.83;;;32.40;;
53253;SDS011;39148;53.332;6.922;2022-09-01T14:30:21;56.10;;;33.42;;
53253;SDS011;39148;53.332;6.922;2022-09-01T14:32:50;48.25;;;29.67;;
53253;SDS011;39148;53.332;6.922;2022-09-01T14:35:17;52.60;;;31.50;;
53253;SDS011;39148;53.332;6.922;2022-09-01T14:37:49;48.95;;;29.70;;
53253;SDS011;39148;53.332;6.922;2022-09-01T14:40:16;45.15;;;27.67;;
53253;SDS011;39148;53.332;6.922;2022-09-01T14:42:44;43.75;;;27.08;;
53253;SDS011;39148;53.332;6.922;2022-09-01T14:45:13;42.80;;;25.83;;
53253;SDS011;39148;53.332;6.922;2022-09-01T14:47:42;39.42;;;24.88;;
53253;SDS011;39148;53.332;6.922;2022-09-01T14:50:09;40.45;;;26.08;;
53253;SDS011;39148;53.332;6.922;2022-09-01T14:52:36;38.92;;;25.73;;
53253;SDS011;39148;53.332;6.922;2022-09-01T14:55:02;38.72;;;22.90;;
53253;SDS011;39148;53.332;6.922;2022-09-01T14:57:29;36.85;;;23.30;;
53253;SDS011;39148;53.332;6.922;2022-09-01T14:59:56;38.80;;;22.73;;
53253;SDS011;39148;53.332;6.922;2022-09-01T15:02:22;37.30;;;23.17;;
53253;SDS011;39148;53.332;6.922;2022-09-01T15:04:49;34.22;;;21.38;;
53253;SDS011;39148;53.332;6.922;2022-09-01T15:07:15;34.78;;;21.05;;
53253;SDS011;39148;53.332;6.922;2022-09-01T15:09:41;32.25;;;19.42;;
53253;SDS011;39148;53.332;6.922;2022-09-01T15:12:07;31.05;;;19.27;;
53253;SDS011;39148;53.332;6.922;2022-09-01T15:14:33;32.72;;;20.75;;
53253;SDS011;39148;53.332;6.922;2022-09-01T15:17:00;30.92;;;18.90;;
53253;SDS011;39148;53.332;6.922;2022-09-01T15:19:26;30.35;;;18.88;;
53253;SDS011;39148;53.332;6.922;2022-09-01T15:21:51;29.38;;;17.83;;
53253;SDS011;39148;53.332;6.922;2022-09-01T15:24:17;29.90;;;17.35;;
53253;SDS011;39148;53.332;6.922;2022-09-01T15:26:43;26.40;;;16.98;;
53253;SDS011;39148;53.332;6.922;2022-09-01T15:29:11;25.05;;;16.02;;
53253;SDS011;39148;53.332;6.922;2022-09-01T15:31:40;23.65;;;14.95;;
53253;SDS011;39148;53.332;6.922;2022-09-01T15:34:09;21.73;;;14.05;;
53253;SDS011;39148;53.332;6.922;2022-09-01T15:36:37;23.58;;;14.00;;
53253;SDS011;39148;53.332;6.922;2022-09-01T15:39:05;24.10;;;13.80;;
53253;SDS011;39148;53.332;6.922;2022-09-01T15:41:32;21.77;;;12.57;;
53253;SDS011;39148;53.332;6.922;2022-09-01T15:43:58;20.40;;;12.32;;
53253;SDS011;39148;53.332;6.922;2022-09-01T15:46:26;18.65;;;11.45;;
53253;SDS011;39148;53.332;6.922;2022-09-01T15:49:00;18.27;;;11.18;;
53253;SDS011;39148;53.332;6.922;2022-09-01T15:51:31;16.85;;;10.68;;
53253;SDS011;39148;53.332;6.922;2022-09-01T15:54:03;17.48;;;9.70;;
53253;SDS011;39148;53.332;6.922;2022-09-01T15:56:33;17.73;;;10.30;;
53253;SDS011;39148;53.332;6.922;2022-09-01T15:59:00;16.17;;;9.65;;
53253;SDS011;39148;53.332;6.922;2022-09-01T16:01:26;15.68;;;9.15;;
53253;SDS011;39148;53.332;6.922;2022-09-01T16:03:53;16.85;;;9.25;;
53253;SDS011;39148;53.332;6.922;2022-09-01T16:06:20;14.48;;;8.80;;
53253;SDS011;39148;53.332;6.922;2022-09-01T16:08:47;15.30;;;8.45;;
53253;SDS011;39148;53.332;6.922;2022-09-01T16:11:13;13.02;;;8.00;;
53253;SDS011;39148;53.332;6.922;2022-09-01T16:13:39;11.25;;;6.90;;
53253;SDS011;39148;53.332;6.922;2022-09-01T16:19:06;13.23;;;6.80;;
53253;SDS011;39148;53.332;6.922;2022-09-01T16:22:10;12.32;;;6.80;;